Time;durP1;ratioP1;P1;durP2;ratioP2;P2;SDS_P1;SDS_P2;PMS_P1;PMS_P2;Temp;Humidity;BMP_temperature;BMP_pressure;BME280_temperature;BME280_humidity;BME280_pressure;Samples;Min_cycle;Max_cycle;Signal;HPM_P1;HPM_P2
2023/03/26 00:02:05;;;;;;;6.13;2.28;;;;;;;6.35;100.00;100558.63;4892547;29;21929;-75
2023/03/26 00:04:32;;;;;;;6.32;1.80;;;;;;;6.33;100.00;100560.44;4893713;29;20040;-75
2023/03/26 00:06:58;;;;;;;6.63;2.47;;;;;;;6.30;100.00;100565.81;4892456;29;20056;-75
2023/03/26 00:09:24;;;;;;;5.90;1.90;;;;;;;6.30;100.00;100567.56;4887990;29;20052;-75
2023/03/26 00:11:51;;;;;;;6.75;1.95;;;;;;;6.29;100.00;100579.88;4871414;29;21621;-76
2023/03/26 00:14:16;;;;;;;8.15;2.03;;;;;;;6.27;100.00;100579.06;4877536;29;20465;-75
2023/03/26 00:16:43;;;;;;;4.72;1.67;;;;;;;6.25;100.00;100579.09;4891392;29;20045;-75
2023/03/26 00:19:10;;;;;;;5.38;1.77;;;;;;;6.23;100.00;100585.31;4877003;29;20075;-75
2023/03/26 00:21:36;;;;;;;7.78;2.65;;;;;;;6.21;100.00;100585.34;4876569;29;20052;-75
2023/03/26 00:24:08;;;;;;;9.10;2.53;;;;;;;6.19;100.00;100589.81;4878568;29;20059;-75
2023/03/26 00:26:36;;;;;;;9.17;2.13;;;;;;;6.16;100.00;100594.31;4890329;29;20147;-75
2023/03/26 00:29:02;;;;;;;6.18;2.55;;;;;;;6.13;100.00;100589.13;4878442;29;20052;-75
2023/03/26 00:31:28;;;;;;;7.38;2.13;;;;;;;6.08;100.00;100590.16;4889718;29;20122;-75
2023/03/26 00:33:54;;;;;;;7.22;2.00;;;;;;;6.06;100.00;100594.56;4876406;29;20048;-76
2023/03/26 00:36:20;;;;;;;7.47;1.80;;;;;;;6.02;100.00;100606.09;4892909;29;20100;-75
2023/03/26 00:38:46;;;;;;;6.72;1.60;;;;;;;5.99;100.00;100603.50;4893515;29;20788;-75
2023/03/26 00:41:21;;;;;;;11.07;2.33;;;;;;;5.96;100.00;100604.50;4875149;29;20051;-75
2023/03/26 00:43:48;;;;;;;3.58;2.00;;;;;;;5.92;100.00;100612.50;4879862;29;20508;-75
2023/03/26 00:46:14;;;;;;;7.05;2.28;;;;;;;5.88;100.00;100610.88;4884292;29;20132;-75
2023/03/26 00:48:41;;;;;;;8.18;2.38;;;;;;;5.84;100.00;100607.47;4877852;29;20056;-75
2023/03/26 00:51:08;;;;;;;4.78;1.67;;;;;;;5.80;100.00;100597.94;4877989;29;20142;-75
2023/03/26 00:53:37;;;;;;;5.82;1.75;;;;;;;5.76;100.00;100589.31;4878716;29;20052;-75
2023/03/26 00:56:07;;;;;;;4.22;1.60;;;;;;;5.73;100.00;100597.28;4894907;29;20084;-75
2023/03/26 00:58:32;;;;;;;7.30;1.48;;;;;;;5.69;100.00;100588.63;4895084;29;20147;-75
2023/03/26 01:01:01;;;;;;;9.77;1.77;;;;;;;5.69;100.00;100585.13;4876755;29;21231;-75
2023/03/26 01:03:32;;;;;;;7.72;1.65;;;;;;;5.66;100.00;100595.75;4876982;29;20040;-75
2023/03/26 01:06:03;;;;;;;7.88;1.80;;;;;;;5.64;100.00;100590.53;4894945;29;20044;-75
2023/03/26 01:08:30;;;;;;;6.13;1.95;;;;;;;5.64;100.00;100598.41;4891188;29;20550;-75
2023/03/26 01:11:06;;;;;;;11.57;1.90;;;;;;;5.63;100.00;100595.81;4892876;29;20210;-75
2023/03/26 01:13:36;;;;;;;4.63;2.00;;;;;;;5.60;100.00;100586.25;4879478;29;20104;-75
2023/03/26 01:16:19;;;;;;;5.32;1.55;;;;;;;5.59;100.00;100581.91;4879226;29;20040;-75
2023/03/26 01:18:47;;;;;;;6.97;1.80;;;;;;;5.58;100.00;100583.66;4894131;29;20056;-75
2023/03/26 01:21:21;;;;;;;6.05;1.60;;;;;;;5.58;100.00;100577.56;4878075;29;20698;-75
2023/03/26 01:23:58;;;;;;;5.18;1.45;;;;;;;5.56;100.00;100574.97;4894155;29;20420;-75
2023/03/26 01:26:47;;;;;;;7.07;1.55;;;;;;;5.56;100.00;100564.47;4891465;29;20051;-75
2023/03/26 01:29:19;;;;;;;10.07;1.77;;;;;;;5.55;100.00;100575.03;4884887;29;20122;-75
2023/03/26 01:32:00;;;;;;;5.90;1.95;;;;;;;5.53;100.00;100561.94;4877090;29;20416;-75
2023/03/26 01:34:51;;;;;;;10.02;1.90;;;;;;;5.52;100.00;100560.25;4872689;29;20519;-75
2023/03/26 01:37:51;;;;;;;7.97;1.70;;;;;;;5.51;100.00;100555.88;4892325;29;20056;-75
2023/03/26 01:40:41;;;;;;;6.13;1.85;;;;;;;5.47;100.00;100559.50;4889707;29;20111;-75
2023/03/26 01:43:12;;;;;;;4.97;1.88;;;;;;;5.45;100.00;100556.03;4874622;29;20514;-75
2023/03/26 01:45:40;;;;;;;6.15;1.75;;;;;;;5.41;100.00;100554.41;4893811;29;20048;-75
2023/03/26 01:48:06;;;;;;;7.32;1.80;;;;;;;5.37;100.00;100551.03;4879855;29;20052;-75
2023/03/26 01:50:31;;;;;;;6.88;1.50;;;;;;;5.34;100.00;100552.88;4876227;29;20051;-76
2023/03/26 01:52:57;;;;;;;5.20;1.75;;;;;;;5.31;100.00;100548.56;4873507;29;20063;-75
2023/03/26 01:55:38;;;;;;;10.98;2.20;;;;;;;5.27;100.00;100547.78;4891638;29;20142;-75
2023/03/26 01:58:15;;;;;;;9.65;1.70;;;;;;;5.23;100.00;100558.44;4891979;29;20630;-75
2023/03/26 02:01:12;;;;;;;11.05;1.92;;;;;;;5.17;100.00;100554.19;4890199;29;20050;-75
2023/03/26 02:03:44;;;;;;;6.78;2.10;;;;;;;5.14;100.00;100552.50;4885617;29;20578;-75
2023/03/26 02:06:22;;;;;;;4.53;1.60;;;;;;;5.08;100.00;100546.59;4892489;29;20055;-75
2023/03/26 02:08:47;;;;;;;8.50;2.00;;;;;;;5.02;100.00;100548.47;4886022;29;20098;-75
2023/03/26 02:11:13;;;;;;;6.68;1.63;;;;;;;4.99;100.00;100545.06;4891893;29;20048;-75
2023/03/26 02:13:41;;;;;;;9.82;2.15;;;;;;;4.94;100.00;100549.56;4860894;29;20806;-75
2023/03/26 02:16:11;;;;;;;6.03;1.63;;;;;;;4.90;100.00;100546.16;4861093;29;20060;-75
2023/03/26 02:18:37;;;;;;;8.05;1.60;;;;;;;4.86;100.00;100541.91;4888579;29;20044;-75
2023/03/26 02:21:18;;;;;;;10.57;2.00;;;;;;;4.84;100.00;100546.31;4892280;29;20055;-75
2023/03/26 02:23:45;;;;;;;10.00;1.85;;;;;;;4.81;100.00;100538.53;4892657;29;20056;-75
2023/03/26 02:26:12;;;;;;;4.60;1.50;;;;;;;4.78;100.00;100530.78;4875046;29;20720;-75
2023/03/26 02:28:37;;;;;;;10.05;2.00;;;;;;;4.75;100.00;100531.72;4884283;29;20044;-75
2023/03/26 02:31:03;;;;;;;7.57;1.65;;;;;;;4.74;100.00;100538.69;4893679;29;20048;-75
2023/03/26 02:33:30;;;;;;;9.50;1.98;;;;;;;4.74;100.00;100527.38;4890791;29;20465;-75
2023/03/26 02:36:03;;;;;;;8.85;1.80;;;;;;;4.77;100.00;100522.03;4887220;29;20044;-75
2023/03/26 02:38:32;;;;;;;5.30;1.70;;;;;;;4.80;100.00;100521.94;4884263;29;20048;-75
2023/03/26 02:40:58;;;;;;;5.97;1.75;;;;;;;4.81;100.00;100517.56;4888318;29;20045;-76
2023/03/26 02:43:23;;;;;;;2.17;1.40;;;;;;;4.83;100.00;100519.25;4889726;29;20048;-77
2023/03/26 02:45:49;;;;;;;10.45;1.85;;;;;;;4.86;100.00;100515.69;4891467;29;20111;-76
2023/03/26 02:48:15;;;;;;;6.60;1.80;;;;;;;4.87;100.00;100510.41;4873403;29;20111;-76
2023/03/26 02:50:41;;;;;;;4.85;1.42;;;;;;;4.88;100.00;100509.50;4875446;29;21892;-76
2023/03/26 02:53:07;;;;;;;8.07;1.67;;;;;;;4.92;100.00;100506.78;4891312;29;20064;-76
2023/03/26 02:55:32;;;;;;;10.27;2.10;;;;;;;4.94;100.00;100507.59;4877458;29;20048;-76
2023/03/26 02:57:59;;;;;;;9.88;2.40;;;;;;;4.94;100.00;100505.84;4895637;29;20063;-76
2023/03/26 03:00:24;;;;;;;9.68;2.00;;;;;;;4.97;100.00;100502.28;4856967;29;21182;-76
2023/03/26 03:02:51;;;;;;;6.45;2.08;;;;;;;4.98;100.00;100497.00;4878938;29;20388;-76
2023/03/26 03:05:18;;;;;;;7.43;2.10;;;;;;;5.01;100.00;100493.44;4895912;29;20044;-76
2023/03/26 03:07:45;;;;;;;12.10;2.40;;;;;;;5.02;100.00;100498.59;4878713;29;20044;-76
2023/03/26 03:10:12;;;;;;;6.78;1.90;;;;;;;5.05;100.00;100496.81;4878100;29;20686;-76
2023/03/26 03:12:39;;;;;;;6.88;1.80;;;;;;;5.06;100.00;100490.66;4894713;29;20127;-76
2023/03/26 03:15:06;;;;;;;11.32;1.92;;;;;;;5.08;100.00;100488.84;4896119;29;20040;-75
2023/03/26 03:17:32;;;;;;;5.95;1.73;;;;;;;5.08;100.00;100487.09;4890174;29;20055;-75
2023/03/26 03:19:57;;;;;;;7.75;1.85;;;;;;;5.10;100.00;100487.03;4895302;29;20146;-75
2023/03/26 03:22:23;;;;;;;7.80;1.98;;;;;;;5.11;100.00;100489.63;4877661;29;20090;-75
2023/03/26 03:24:50;;;;;;;11.48;2.13;;;;;;;5.14;100.00;100486.06;4876130;29;20064;-75
2023/03/26 03:27:19;;;;;;;9.20;1.88;;;;;;;5.14;100.00;100483.44;4876382;29;20242;-75
2023/03/26 03:29:45;;;;;;;13.07;1.98;;;;;;;5.14;100.00;100478.19;4895237;29;20128;-75
2023/03/26 03:32:11;;;;;;;11.85;2.10;;;;;;;5.13;100.00;100472.06;4895311;29;20072;-75
2023/03/26 03:34:37;;;;;;;8.98;1.95;;;;;;;5.11;100.00;100471.25;4892793;29;20040;-75
2023/03/26 03:37:04;;;;;;;10.68;2.35;;;;;;;5.10;100.00;100477.41;4876892;29;20048;-75
2023/03/26 03:39:29;;;;;;;11.25;2.20;;;;;;;5.08;100.00;100468.72;4879591;29;20296;-75
2023/03/26 03:41:55;;;;;;;2.95;1.60;;;;;;;5.08;100.00;100462.59;4894977;29;20127;-75
2023/03/26 03:44:21;;;;;;;10.55;1.77;;;;;;;5.06;100.00;100461.81;4893048;29;20132;-75
2023/03/26 03:46:48;;;;;;;12.35;1.85;;;;;;;5.03;100.00;100468.00;4893149;29;20135;-75
2023/03/26 03:49:13;;;;;;;9.18;1.60;;;;;;;5.02;100.00;100472.38;4895091;29;20468;-75
2023/03/26 03:51:39;;;;;;;7.20;1.48;;;;;;;4.99;100.00;100468.97;4893539;29;20063;-75
2023/03/26 03:54:05;;;;;;;8.40;1.77;;;;;;;4.97;100.00;100471.63;4893049;29;20055;-75
2023/03/26 03:56:31;;;;;;;9.40;1.83;;;;;;;4.96;100.00;100464.66;4894518;29;20047;-75
2023/03/26 03:58:57;;;;;;;9.00;2.33;;;;;;;4.95;100.00;100457.69;4894355;29;20891;-75
2023/03/26 04:01:23;;;;;;;6.95;1.92;;;;;;;4.90;100.00;100459.59;4893412;29;20135;-75
2023/03/26 04:03:48;;;;;;;6.57;2.03;;;;;;;4.88;100.00;100461.41;4893484;29;20078;-75
2023/03/26 04:06:17;;;;;;;9.77;1.98;;;;;;;4.83;100.00;100468.53;4876576;29;20062;-75
2023/03/26 04:08:44;;;;;;;4.65;1.60;;;;;;;4.82;100.00;100472.06;4876023;29;20635;-75
2023/03/26 04:11:11;;;;;;;6.97;1.77;;;;;;;4.78;100.00;100467.81;4894075;29;20055;-75
2023/03/26 04:13:37;;;;;;;7.13;1.60;;;;;;;4.77;100.00;100472.19;4895204;29;20670;-75
2023/03/26 04:16:03;;;;;;;3.70;1.70;;;;;;;4.75;100.00;100474.00;4893750;29;20050;-75
2023/03/26 04:18:31;;;;;;;5.88;1.52;;;;;;;4.74;100.00;100475.75;4892203;29;20040;-75
2023/03/26 04:21:01;;;;;;;7.60;1.58;;;;;;;4.73;100.00;100476.66;4893557;29;20056;-75
2023/03/26 04:23:28;;;;;;;7.18;1.63;;;;;;;4.73;100.00;100467.91;4892498;29;20052;-75
2023/03/26 04:25:54;;;;;;;9.88;1.77;;;;;;;4.72;100.00;100464.44;4891488;29;20052;-75
2023/03/26 04:28:30;;;;;;;9.90;1.90;;;;;;;4.71;100.00;100461.88;4878822;29;20043;-75
2023/03/26 04:31:00;;;;;;;7.88;1.60;;;;;;;4.71;100.00;100467.97;4893009;29;20041;-76
2023/03/26 04:33:29;;;;;;;6.38;1.70;;;;;;;4.70;100.00;100465.41;4890798;29;20131;-75
2023/03/26 04:36:00;;;;;;;6.50;1.90;;;;;;;4.68;100.00;100465.44;4891707;29;20468;-75
2023/03/26 04:38:27;;;;;;;5.03;1.58;;;;;;;4.68;100.00;100461.97;4877127;29;20138;-75
2023/03/26 04:40:52;;;;;;;8.15;1.80;;;;;;;4.66;100.00;100467.25;4877703;29;20056;-75
2023/03/26 04:43:18;;;;;;;8.95;2.20;;;;;;;4.64;100.00;100457.69;4891526;29;20079;-75
2023/03/26 04:45:44;;;;;;;12.15;1.95;;;;;;;4.65;100.00;100452.41;4893856;29;20071;-75
2023/03/26 04:48:13;;;;;;;9.60;1.85;;;;;;;4.66;100.00;100456.75;4878764;29;20052;-75
2023/03/26 04:50:41;;;;;;;8.10;1.83;;;;;;;4.68;100.00;100457.56;4875134;29;20496;-75
2023/03/26 04:53:12;;;;;;;7.85;1.67;;;;;;;4.67;100.00;100453.22;4890110;29;20525;-75
2023/03/26 04:55:42;;;;;;;9.98;1.85;;;;;;;4.67;100.00;100453.22;4892267;29;21604;-75
2023/03/26 04:58:08;;;;;;;10.50;1.70;;;;;;;4.69;100.00;100455.81;4891461;29;20048;-75
2023/03/26 05:00:33;;;;;;;4.68;1.38;;;;;;;4.70;100.00;100447.91;4874554;29;20055;-75
2023/03/26 05:03:00;;;;;;;9.05;1.83;;;;;;;4.70;100.00;100450.53;4892013;29;20044;-75
2023/03/26 05:05:27;;;;;;;7.00;1.40;;;;;;;4.71;100.00;100448.75;4892781;29;20397;-75
2023/03/26 05:07:54;;;;;;;10.88;2.03;;;;;;;4.73;100.00;100453.06;4874986;29;20052;-75
2023/03/26 05:10:21;;;;;;;9.00;1.80;;;;;;;4.72;100.00;100451.34;4891650;29;20056;-75
2023/03/26 05:12:47;;;;;;;7.70;1.80;;;;;;;4.71;100.00;100454.88;4889339;29;20048;-75
2023/03/26 05:15:14;;;;;;;10.25;2.00;;;;;;;4.72;100.00;100460.97;4871692;29;20087;-75
2023/03/26 05:17:40;;;;;;;6.63;1.80;;;;;;;4.70;100.00;100457.53;4890093;29;20514;-75
2023/03/26 05:20:15;;;;;;;4.97;1.50;;;;;;;4.68;100.00;100459.34;4889946;29;20052;-75
2023/03/26 05:22:42;;;;;;;4.75;1.48;;;;;;;4.67;100.00;100452.34;4874373;29;20139;-75
2023/03/26 05:25:08;;;;;;;12.02;1.98;;;;;;;4.66;100.00;100454.13;4877591;29;20048;-77
2023/03/26 05:27:33;;;;;;;5.90;1.48;;;;;;;4.65;100.00;100454.16;4889733;29;20054;-76
2023/03/26 05:30:00;;;;;;;6.13;1.45;;;;;;;4.66;100.00;100453.25;4893246;29;20100;-76
2023/03/26 05:32:25;;;;;;;6.18;1.83;;;;;;;4.65;100.00;100457.66;4892884;29;20135;-76
2023/03/26 05:34:51;;;;;;;6.85;1.50;;;;;;;4.66;100.00;100448.88;4874843;29;20052;-76
2023/03/26 05:37:18;;;;;;;6.97;1.52;;;;;;;4.66;100.00;100453.25;4892294;29;20048;-76
2023/03/26 05:39:44;;;;;;;6.72;1.70;;;;;;;4.65;100.00;100455.03;4890062;29;20052;-76
2023/03/26 05:42:10;;;;;;;6.28;1.70;;;;;;;4.66;100.00;100455.88;4893674;29;20037;-76
2023/03/26 05:44:35;;;;;;;9.55;1.98;;;;;;;4.66;100.00;100455.88;4884132;29;20036;-77
2023/03/26 05:47:01;;;;;;;6.85;1.55;;;;;;;4.66;100.00;100446.25;4890763;29;20538;-76
2023/03/26 05:49:26;;;;;;;8.18;1.80;;;;;;;4.66;100.00;100448.00;4889939;29;20048;-76
2023/03/26 05:51:52;;;;;;;7.78;1.33;;;;;;;4.64;100.00;100445.44;4884843;29;20937;-76
2023/03/26 05:54:17;;;;;;;6.35;1.52;;;;;;;4.59;100.00;100444.72;4888403;29;20063;-76
2023/03/26 05:56:43;;;;;;;9.25;1.40;;;;;;;4.60;100.00;100451.66;4887661;29;21163;-76
2023/03/26 05:59:08;;;;;;;5.90;1.70;;;;;;;4.57;100.00;100449.97;4875619;29;20177;-76
2023/03/26 06:01:34;;;;;;;9.30;1.70;;;;;;;4.58;100.00;100453.47;4873174;29;20044;-76
2023/03/26 06:03:59;;;;;;;9.70;2.20;;;;;;;4.58;100.00;100446.47;4876413;29;20446;-76
2023/03/26 06:06:25;;;;;;;6.20;1.50;;;;;;;4.59;100.00;100442.94;4858571;29;20044;-76
2023/03/26 06:08:51;;;;;;;10.13;1.85;;;;;;;4.60;100.00;100441.19;4874674;29;20060;-76
2023/03/26 06:11:18;;;;;;;4.72;1.25;;;;;;;4.59;100.00;100440.31;4858493;29;20083;-76
2023/03/26 06:13:45;;;;;;;9.18;1.75;;;;;;;4.60;100.00;100443.81;4842739;29;20047;-76
2023/03/26 06:16:12;;;;;;;7.40;1.42;;;;;;;4.62;100.00;100442.00;4858402;29;20083;-77
2023/03/26 06:18:38;;;;;;;9.10;1.50;;;;;;;4.64;100.00;100444.56;4855903;29;20116;-76
2023/03/26 06:21:05;;;;;;;5.68;1.88;;;;;;;4.64;100.00;100440.22;4872588;29;20455;-76
2023/03/26 06:23:31;;;;;;;8.88;1.75;;;;;;;4.65;100.00;100441.91;4888245;29;20045;-76
2023/03/26 06:25:57;;;;;;;9.35;1.70;;;;;;;4.66;100.00;100441.00;4858523;29;20051;-76
2023/03/26 06:28:23;;;;;;;5.45;1.38;;;;;;;4.66;100.00;100435.78;4874287;29;20041;-76
2023/03/26 06:30:49;;;;;;;3.40;1.50;;;;;;;4.69;100.00;100438.28;4854334;29;20036;-76
2023/03/26 06:33:15;;;;;;;11.63;1.70;;;;;;;4.71;100.00;100438.25;4877729;29;20040;-76
2023/03/26 06:35:41;;;;;;;3.78;1.52;;;;;;;4.72;100.00;100435.59;4858951;29;20487;-76
2023/03/26 06:38:07;;;;;;;7.80;1.67;;;;;;;4.73;100.00;100445.19;4879989;29;20064;-76
2023/03/26 06:40:33;;;;;;;8.30;1.63;;;;;;;4.75;100.00;100435.50;4862787;29;20141;-76
2023/03/26 06:42:59;;;;;;;7.25;1.38;;;;;;;4.80;100.00;100440.63;4874927;29;20499;-76
2023/03/26 06:45:26;;;;;;;6.57;1.70;;;;;;;4.82;100.00;100438.84;4878839;29;20052;-76
2023/03/26 06:47:52;;;;;;;8.32;1.25;;;;;;;4.84;100.00;100437.03;4878717;29;20134;-76
2023/03/26 06:50:18;;;;;;;6.53;1.33;;;;;;;4.86;100.00;100436.97;4870828;29;20100;-76
2023/03/26 06:52:44;;;;;;;4.82;1.15;;;;;;;4.86;100.00;100431.75;4884395;29;20057;-76
2023/03/26 06:55:09;;;;;;;5.32;1.45;;;;;;;4.91;100.00;100435.09;4891745;29;20207;-76
2023/03/26 06:57:36;;;;;;;6.30;1.33;;;;;;;4.96;100.00;100434.97;4896091;29;20051;-76
2023/03/26 07:00:02;;;;;;;5.70;1.42;;;;;;;5.02;100.00;100440.03;4876760;29;20150;-76
2023/03/26 07:02:28;;;;;;;8.32;1.52;;;;;;;5.06;100.00;100438.19;4864528;29;20552;-75
2023/03/26 07:04:53;;;;;;;6.80;1.55;;;;;;;5.11;100.00;100442.38;4895527;29;20040;-76
2023/03/26 07:07:20;;;;;;;8.85;2.13;;;;;;;5.17;100.00;100441.34;4895867;29;20040;-76
2023/03/26 07:09:46;;;;;;;7.75;1.60;;;;;;;5.21;100.00;100437.72;4890172;29;20047;-75
2023/03/26 07:12:13;;;;;;;8.52;1.50;;;;;;;5.22;100.00;100431.56;4878921;29;20176;-76
2023/03/26 07:14:38;;;;;;;8.23;1.67;;;;;;;5.23;100.00;100435.91;4895545;29;20052;-76
2023/03/26 07:17:04;;;;;;;3.63;1.38;;;;;;;5.25;100.00;100444.63;4890707;29;20048;-76
2023/03/26 07:19:29;;;;;;;6.03;1.58;;;;;;;5.27;100.00;100431.41;4892718;29;20139;-76
2023/03/26 07:21:55;;;;;;;5.43;1.27;;;;;;;5.25;100.00;100435.88;4879909;29;20072;-76
2023/03/26 07:24:21;;;;;;;4.88;1.65;;;;;;;5.24;100.00;100419.25;4893292;29;20140;-76
2023/03/26 07:26:56;;;;;;;6.32;1.42;;;;;;;5.27;100.00;100423.56;4893785;29;20523;-76
2023/03/26 07:29:27;;;;;;;9.23;1.67;;;;;;;5.28;100.00;100417.38;4895157;29;20760;-76
2023/03/26 07:32:14;;;;;;;6.35;1.45;;;;;;;5.30;100.00;100420.84;4863796;29;20036;-76
2023/03/26 07:34:49;;;;;;;6.80;1.48;;;;;;;5.34;100.00;100426.88;4893669;29;20048;-76
2023/03/26 07:37:46;;;;;;;3.40;1.10;;;;;;;5.35;100.00;100418.94;4896040;29;20044;-75
2023/03/26 07:40:45;;;;;;;4.05;1.17;;;;;;;5.35;100.00;100416.31;4879985;29;20055;-76
2023/03/26 07:43:17;;;;;;;10.25;1.60;;;;;;;5.38;100.00;100428.47;4894213;29;20051;-76
2023/03/26 07:45:44;;;;;;;7.63;1.15;;;;;;;5.40;100.00;100416.19;4895582;29;20047;-76
2023/03/26 07:48:19;;;;;;;4.18;1.13;;;;;;;5.44;100.00;100423.91;4878179;29;20925;-76
2023/03/26 07:50:46;;;;;;;6.65;1.10;;;;;;;5.48;100.00;100424.69;4877373;29;20497;-76
2023/03/26 07:53:12;;;;;;;3.95;1.27;;;;;;;5.50;100.00;100428.09;4893062;29;20083;-76
2023/03/26 07:55:51;;;;;;;5.63;1.70;;;;;;;5.51;100.00;100427.19;4874842;29;20611;-76
2023/03/26 07:58:29;;;;;;;6.25;1.52;;;;;;;5.49;100.00;100425.53;4876429;29;20128;-76
2023/03/26 08:00:59;;;;;;;7.65;1.27;;;;;;;5.51;100.00;100428.97;4891908;29;20043;-75
2023/03/26 08:03:37;;;;;;;6.72;1.63;;;;;;;5.52;100.00;100431.56;4886792;29;20125;-76
2023/03/26 08:06:38;;;;;;;6.63;1.60;;;;;;;5.51;100.00;100439.47;4892162;29;20393;-76
2023/03/26 08:09:19;;;;;;;4.85;1.40;;;;;;;5.54;100.00;100434.13;4837302;29;20132;-76
2023/03/26 08:12:02;;;;;;;5.57;1.33;;;;;;;5.55;100.00;100430.56;4890404;29;20604;-76
2023/03/26 08:14:49;;;;;;;7.47;1.30;;;;;;;5.58;100.00;100423.47;4892008;29;20056;-76
2023/03/26 08:17:42;;;;;;;3.45;1.50;;;;;;;5.57;100.00;100426.16;4889633;29;20610;-76
2023/03/26 08:20:16;;;;;;;8.63;1.07;;;;;;;5.59;100.00;100424.34;4889026;29;20075;-76
2023/03/26 08:22:44;;;;;;;5.18;1.30;;;;;;;5.62;100.00;100432.09;4876806;29;20923;-76
2023/03/26 08:25:26;;;;;;;4.43;1.33;;;;;;;5.66;100.00;100432.91;4876514;29;20043;-75
2023/03/26 08:28:17;;;;;;;6.65;1.25;;;;;;;5.68;100.00;100438.94;4865244;29;20059;-75
2023/03/26 08:30:43;;;;;;;8.60;1.83;;;;;;;5.69;100.00;100435.41;4888536;29;20610;-76
2023/03/26 08:33:16;;;;;;;5.00;1.27;;;;;;;5.76;100.00;100433.44;4857624;29;20139;-76
2023/03/26 08:35:43;;;;;;;6.70;1.75;;;;;;;5.77;100.00;100435.19;4873291;29;20500;-76
2023/03/26 08:38:10;;;;;;;5.60;1.52;;;;;;;5.78;100.00;100445.63;4889263;29;20068;-76
2023/03/26 08:40:54;;;;;;;5.05;1.10;;;;;;;5.82;100.00;100438.50;4890389;29;20075;-76
2023/03/26 08:43:50;;;;;;;4.43;1.20;;;;;;;5.84;100.00;100445.44;4889408;29;20584;-76
2023/03/26 08:46:34;;;;;;;6.53;1.40;;;;;;;5.91;100.00;100455.75;4888113;29;20048;-76
2023/03/26 08:49:25;;;;;;;5.30;1.27;;;;;;;5.96;100.00;100451.19;4890536;29;20063;-76
2023/03/26 08:51:53;;;;;;;6.10;1.40;;;;;;;6.01;100.00;100443.16;4887819;29;20054;-76
2023/03/26 08:54:28;;;;;;;7.15;1.73;;;;;;;6.05;100.00;100447.47;4877899;29;20052;-76
2023/03/26 08:57:09;;;;;;;5.38;1.25;;;;;;;6.13;100.00;100455.06;4891501;29;20060;-76
2023/03/26 09:00:12;;;;;;;5.63;1.55;;;;;;;6.16;100.00;100452.34;4891808;29;20076;-76
2023/03/26 09:02:56;;;;;;;5.55;1.63;;;;;;;6.18;100.00;100453.16;4858886;29;20450;-76
2023/03/26 09:05:41;;;;;;;4.55;1.10;;;;;;;6.19;100.00;100449.59;4874948;29;20062;-76
2023/03/26 09:08:35;;;;;;;2.63;1.00;;;;;;;6.19;100.00;100457.50;4889477;29;20044;-76
2023/03/26 09:11:36;;;;;;;3.63;1.02;;;;;;;6.21;100.00;100448.66;4874822;29;20059;-76
2023/03/26 09:14:12;;;;;;;4.35;1.13;;;;;;;6.27;100.00;100450.22;4890036;29;20091;-76
2023/03/26 09:17:08;;;;;;;7.63;1.10;;;;;;;6.24;100.00;100452.94;4889585;29;20102;-76
2023/03/26 09:19:40;;;;;;;4.18;1.45;;;;;;;6.32;100.00;100453.53;4862321;29;20555;-76
2023/03/26 09:22:15;;;;;;;3.97;1.10;;;;;;;6.38;100.00;100452.50;4877008;29;20493;-76
2023/03/26 09:25:02;;;;;;;8.05;1.63;;;;;;;6.43;100.00;100453.16;4892087;29;20048;-76
2023/03/26 09:27:35;;;;;;;3.83;1.17;;;;;;;6.52;100.00;100452.00;4888707;29;20514;-76
2023/03/26 09:30:25;;;;;;;3.10;1.13;;;;;;;6.58;100.00;100458.84;4873709;29;20287;-76
2023/03/26 09:33:27;;;;;;;4.20;1.30;;;;;;;6.53;97.78;100461.59;4893295;29;20599;-76
2023/03/26 09:36:06;;;;;;;8.25;1.83;;;;;;;6.54;100.00;100463.31;4888565;29;20166;-76
2023/03/26 09:38:43;;;;;;;7.45;1.33;;;;;;;6.57;100.00;100460.59;4893295;29;20052;-76
2023/03/26 09:41:31;;;;;;;2.88;1.00;;;;;;;6.58;100.00;100469.38;4891954;29;20032;-76
2023/03/26 09:44:17;;;;;;;10.88;1.20;;;;;;;6.67;100.00;100471.66;4888041;29;20060;-76
2023/03/26 09:47:20;;;;;;;7.05;1.20;;;;;;;6.65;100.00;100460.34;4890399;29;20851;-76
2023/03/26 09:49:53;;;;;;;3.75;1.38;;;;;;;6.68;100.00;100464.59;4876607;29;20563;-76
2023/03/26 09:52:31;;;;;;;3.83;1.20;;;;;;;6.71;100.00;100470.63;4885308;29;20048;-75
2023/03/26 09:54:56;;;;;;;4.93;1.00;;;;;;;6.69;100.00;100475.09;4894918;29;20052;-75
2023/03/26 09:57:48;;;;;;;3.35;1.05;;;;;;;6.68;100.00;100476.00;4893852;29;20048;-76
2023/03/26 10:00:55;;;;;;;3.58;1.17;;;;;;;6.62;98.20;100466.56;4877663;29;20587;-75
2023/03/26 10:04:03;;;;;;;3.45;0.93;;;;;;;6.66;97.63;100477.84;4885265;29;20047;-75
2023/03/26 10:06:56;;;;;;;5.38;1.30;;;;;;;6.73;95.52;100474.09;4872640;29;20083;-75
2023/03/26 10:10:00;;;;;;;3.70;1.13;;;;;;;6.72;95.69;100482.88;4870792;29;20103;-76
2023/03/26 10:12:43;;;;;;;4.95;1.55;;;;;;;6.73;98.00;100478.47;4888889;29;20079;-76
2023/03/26 10:15:21;;;;;;;5.22;1.10;;;;;;;6.79;95.70;100479.13;4875109;29;21096;-76
2023/03/26 10:18:04;;;;;;;4.38;1.00;;;;;;;6.80;96.52;100474.72;4890438;29;20048;-76
2023/03/26 10:20:55;;;;;;;5.30;1.27;;;;;;;6.80;97.33;100487.88;4893341;29;20044;-75
2023/03/26 10:23:39;;;;;;;6.85;1.33;;;;;;;6.80;97.03;100490.50;4890436;29;20102;-75
2023/03/26 10:26:31;;;;;;;5.85;1.48;;;;;;;6.75;95.28;100479.28;4875756;29;20044;-75
2023/03/26 10:29:18;;;;;;;1.85;0.88;;;;;;;6.73;96.82;100489.00;4893307;29;20505;-74
2023/03/26 10:31:56;;;;;;;4.03;1.00;;;;;;;6.73;97.48;100489.00;4893396;29;20050;-75
2023/03/26 10:34:50;;;;;;;9.02;1.20;;;;;;;6.78;97.49;100487.06;4890262;29;20666;-74
2023/03/26 10:37:31;;;;;;;4.53;1.40;;;;;;;6.78;96.34;100489.69;4892716;29;20100;-75
2023/03/26 10:40:18;;;;;;;2.83;1.00;;;;;;;6.74;94.86;100488.06;4892267;29;20094;-75
2023/03/26 10:43:18;;;;;;;3.10;1.00;;;;;;;6.74;92.65;100486.31;4873958;29;20063;-75
2023/03/26 10:45:58;;;;;;;5.03;1.42;;;;;;;6.75;93.85;100492.44;4894061;29;20056;-75
2023/03/26 10:48:43;;;;;;;7.43;1.27;;;;;;;6.79;96.55;100488.78;4878949;29;20747;-74
2023/03/26 10:51:34;;;;;;;7.57;1.40;;;;;;;6.78;91.65;100492.34;4888015;29;20055;-75
2023/03/26 10:54:29;;;;;;;4.43;1.23;;;;;;;6.78;93.34;100492.34;4874743;29;20065;-75
2023/03/26 10:56:55;;;;;;;4.85;1.13;;;;;;;6.84;96.45;100494.75;4891320;29;20752;-75
2023/03/26 10:59:21;;;;;;;5.85;1.25;;;;;;;6.84;94.71;100492.13;4859921;29;20079;-74
2023/03/26 11:01:58;;;;;;;5.75;1.45;;;;;;;6.79;93.62;100488.78;4854795;29;20616;-75
2023/03/26 11:04:34;;;;;;;5.88;1.33;;;;;;;6.86;95.30;100506.06;4896777;29;20051;-75
2023/03/26 11:07:20;;;;;;;4.65;1.00;;;;;;;6.85;91.04;100488.56;4891088;29;20055;-75
2023/03/26 11:10:31;;;;;;;6.28;1.13;;;;;;;6.88;93.56;100506.03;4870005;29;20044;-74
2023/03/26 11:13:22;;;;;;;3.63;1.10;;;;;;;6.94;93.68;100508.44;4888848;29;20500;-75
2023/03/26 11:15:48;;;;;;;5.78;1.50;;;;;;;6.96;94.12;100498.72;4882214;29;20052;-75
2023/03/26 11:18:37;;;;;;;3.38;0.90;;;;;;;6.97;92.88;100512.75;4876080;29;20048;-74
2023/03/26 11:21:35;;;;;;;5.18;1.42;;;;;;;6.93;91.37;100512.84;4892935;29;20140;-75
2023/03/26 11:24:21;;;;;;;6.82;1.20;;;;;;;6.87;90.85;100520.94;4862963;29;20189;-75
2023/03/26 11:26:54;;;;;;;2.60;0.90;;;;;;;6.89;90.99;100510.38;4893588;29;20052;-75
2023/03/26 11:29:28;;;;;;;4.72;1.30;;;;;;;6.87;91.27;100522.72;4895182;29;20048;-75
2023/03/26 11:32:04;;;;;;;4.72;1.00;;;;;;;6.90;89.72;100523.47;4894519;29;20044;-75
2023/03/26 11:35:01;;;;;;;3.85;1.20;;;;;;;6.85;85.28;100529.78;4876659;29;20799;-76
2023/03/26 11:37:34;;;;;;;5.95;0.98;;;;;;;6.81;86.84;100526.41;4883999;29;20067;-76
2023/03/26 11:40:04;;;;;;;4.85;1.48;;;;;;;6.78;90.72;100524.78;4892422;29;20082;-75
2023/03/26 11:42:31;;;;;;;4.88;1.20;;;;;;;6.81;89.65;100528.22;4890864;29;20079;-75
2023/03/26 11:45:14;;;;;;;7.15;1.30;;;;;;;6.85;89.09;100525.41;4875102;29;20140;-75
2023/03/26 11:47:47;;;;;;;4.75;1.20;;;;;;;6.91;89.73;100532.22;4878260;29;20110;-75
2023/03/26 11:50:20;;;;;;;2.67;1.00;;;;;;;6.96;85.84;100526.81;4876396;29;20294;-75
2023/03/26 11:52:45;;;;;;;;;;;;;;;6.91;84.40;100525.19;4875847;29;20060;-75
2023/03/26 11:55:12;;;;;;;3.17;1.30;;;;;;;6.83;87.02;100524.63;4874450;29;19982;-75